Time;durP1;ratioP1;P1;durP2;ratioP2;P2;SDS_P1;SDS_P2;PMS_P1;PMS_P2;Temp;Humidity;BMP_temperature;BMP_pressure;BME280_temperature;BME280_humidity;BME280_pressure;Samples;Min_cycle;Max_cycle;Signal;HPM_P1;HPM_P2
2024/03/06 00:04:04;;;;;;;2.42;1.50;;;20.70;51.70;;;;;;10353949;28;20117;-60
2024/03/06 00:09:08;;;;;;;3.92;1.58;;;20.70;51.70;;;;;;10356794;28;20049;-61
2024/03/06 00:14:12;;;;;;;2.35;2.00;;;20.80;51.30;;;;;;10351566;28;20469;-61
2024/03/06 00:19:15;;;;;;;6.07;1.65;;;21.00;51.00;;;;;;10351535;28;20042;-61
2024/03/06 00:24:16;;;;;;;4.43;1.70;;;20.90;51.10;;;;;;10355635;28;20572;-61
2024/03/06 00:29:18;;;;;;;4.88;1.77;;;20.90;51.20;;;;;;10356635;28;20115;-60
2024/03/06 00:34:21;;;;;;;7.05;1.80;;;21.00;50.80;;;;;;10358040;28;20556;-61
2024/03/06 00:39:23;;;;;;;4.07;1.73;;;20.80;51.10;;;;;;10361742;28;20142;-61
2024/03/06 00:44:24;;;;;;;5.32;1.90;;;21.00;51.00;;;;;;10358933;28;20132;-61
2024/03/06 00:49:27;;;;;;;3.92;1.90;;;21.00;50.90;;;;;;10355264;28;20044;-61
2024/03/06 00:54:29;;;;;;;2.05;1.40;;;21.10;50.60;;;;;;10357674;28;20137;-61
2024/03/06 00:59:30;;;;;;;5.72;1.67;;;20.90;51.20;;;;;;10357279;28;21437;-61
2024/03/06 01:04:33;;;;;;;4.10;1.63;;;20.80;51.50;;;;;;10361587;28;20128;-61
2024/03/06 01:09:35;;;;;;;3.90;1.50;;;20.80;51.20;;;;;;10359600;28;20132;-60
2024/03/06 01:14:36;;;;;;;7.82;1.83;;;20.80;51.50;;;;;;10355297;28;20141;-58
2024/03/06 01:19:39;;;;;;;8.93;2.60;;;20.70;51.90;;;;;;10353120;28;20052;-58
2024/03/06 01:24:41;;;;;;;15.10;2.20;;;20.70;51.80;;;;;;10352213;28;20475;-60
2024/03/06 01:29:43;;;;;;;6.18;1.98;;;20.60;51.70;;;;;;10356972;28;20121;-59
2024/03/06 01:34:46;;;;;;;4.93;1.65;;;20.50;52.20;;;;;;10363212;28;20504;-59
2024/03/06 01:39:47;;;;;;;4.63;1.70;;;20.40;52.30;;;;;;10359807;28;20061;-58
2024/03/06 01:44:49;;;;;;;4.70;1.85;;;20.70;51.60;;;;;;10360593;28;20128;-58
2024/03/06 01:49:52;;;;;;;3.90;1.73;;;20.70;51.40;;;;;;10359223;28;20539;-61
2024/03/06 01:54:53;;;;;;;7.85;2.00;;;20.80;50.90;;;;;;10358062;28;20046;-60
2024/03/06 01:59:55;;;;;;;6.47;2.00;;;20.40;52.00;;;;;;10353715;28;20134;-59
2024/03/06 02:04:59;;;;;;;5.72;2.03;;;20.60;51.70;;;;;;10354091;28;20642;-58
2024/03/06 02:10:01;;;;;;;3.17;1.77;;;20.90;50.90;;;;;;10356718;28;20057;-60
2024/03/06 02:15:03;;;;;;;5.18;1.90;;;20.60;51.30;;;;;;10353367;28;20125;-57
2024/03/06 02:20:12;;;;;;;7.20;1.90;;;20.70;51.40;;;;;;10358241;28;20057;-59
2024/03/06 02:25:15;;;;;;;2.83;1.38;;;20.70;51.20;;;;;;10364732;28;20053;-61
2024/03/06 02:30:20;;;;;;;3.30;1.65;;;20.60;51.40;;;;;;10362380;28;20043;-61
2024/03/06 02:35:23;;;;;;;4.57;1.50;;;20.60;51.20;;;;;;10361979;28;20081;-60
2024/03/06 02:40:25;;;;;;;6.10;1.75;;;20.40;51.60;;;;;;10362556;28;20046;-60
2024/03/06 02:45:27;;;;;;;4.90;1.60;;;20.50;51.40;;;;;;10361290;28;20572;-60
2024/03/06 02:50:29;;;;;;;3.45;1.60;;;20.60;51.20;;;;;;10361044;28;20137;-60
2024/03/06 02:55:32;;;;;;;2.20;1.73;;;20.70;51.00;;;;;;10359002;28;20145;-60
2024/03/06 03:00:33;;;;;;;3.75;1.40;;;20.40;51.30;;;;;;10365642;28;20077;-58
2024/03/06 03:05:35;;;;;;;2.30;1.50;;;20.50;51.20;;;;;;10362573;28;20129;-60
2024/03/06 03:10:38;;;;;;;1.73;1.50;;;20.70;50.70;;;;;;10363021;28;20472;-59
2024/03/06 03:15:40;;;;;;;4.40;1.80;;;20.50;51.20;;;;;;10357586;28;20137;-59
2024/03/06 03:20:42;;;;;;;2.10;1.38;;;20.50;51.10;;;;;;10353982;28;20045;-60
2024/03/06 03:25:45;;;;;;;3.83;1.60;;;20.10;51.70;;;;;;10360964;28;20468;-60
2024/03/06 03:30:46;;;;;;;5.18;1.83;;;20.10;52.00;;;;;;10356631;28;20141;-58
2024/03/06 03:35:48;;;;;;;5.38;1.42;;;20.40;51.70;;;;;;10361147;28;20073;-60
2024/03/06 03:40:51;;;;;;;4.05;1.40;;;20.50;51.40;;;;;;10363910;28;21001;-61
2024/03/06 03:45:52;;;;;;;5.90;1.77;;;20.60;51.00;;;;;;10361269;28;20141;-61
2024/03/06 03:50:54;;;;;;;3.53;1.77;;;20.10;51.90;;;;;;10356534;28;20136;-62
2024/03/06 03:55:57;;;;;;;3.20;1.60;;;20.30;51.70;;;;;;10359046;28;20144;-61
2024/03/06 04:00:59;;;;;;;5.78;1.70;;;20.40;51.80;;;;;;10358515;28;20042;-62
2024/03/06 04:06:01;;;;;;;3.63;1.67;;;20.00;52.60;;;;;;10363382;28;20559;-61
2024/03/06 04:11:04;;;;;;;3.20;1.45;;;20.60;51.00;;;;;;10360688;28;20076;-61
2024/03/06 04:16:06;;;;;;;3.38;1.85;;;20.50;51.40;;;;;;10362793;28;20550;-61
2024/03/06 04:21:10;;;;;;;6.45;1.80;;;20.70;51.30;;;;;;10361203;28;20153;-61
2024/03/06 04:26:14;;;;;;;6.63;1.90;;;20.80;51.00;;;;;;10359796;28;20408;-62
2024/03/06 04:31:15;;;;;;;13.73;3.40;;;20.80;51.10;;;;;;10356388;28;20046;-61
2024/03/06 04:36:17;;;;;;;9.30;2.42;;;20.70;51.80;;;;;;10355097;28;20129;-61
2024/03/06 04:41:20;;;;;;;4.70;2.38;;;20.80;51.60;;;;;;10357678;28;20046;-61
2024/03/06 04:46:22;;;;;;;8.68;2.90;;;20.90;51.40;;;;;;10351358;28;20157;-61
2024/03/06 04:51:24;;;;;;;11.75;2.65;;;21.00;51.60;;;;;;10358692;28;20044;-60
2024/03/06 04:56:27;;;;;;;6.32;2.40;;;21.00;51.70;;;;;;10356521;28;20464;-59
2024/03/06 05:01:28;;;;;;;6.10;2.85;;;20.90;52.10;;;;;;10356055;28;20137;-61
2024/03/06 05:06:30;;;;;;;7.32;3.05;;;21.00;52.30;;;;;;10355114;28;20528;-61
2024/03/06 05:11:33;;;;;;;6.50;2.45;;;21.10;52.30;;;;;;10355817;28;20049;-61
2024/03/06 05:16:35;;;;;;;5.88;2.65;;;21.10;52.30;;;;;;10359534;28;20069;-61
2024/03/06 05:21:36;;;;;;;4.68;2.22;;;21.10;52.30;;;;;;10357935;28;20054;-55
2024/03/06 05:26:39;;;;;;;5.50;2.47;;;21.20;52.00;;;;;;10356300;28;20143;-61
2024/03/06 05:31:41;;;;;;;4.63;2.15;;;21.20;53.10;;;;;;10359115;28;20134;-58
2024/03/06 05:36:42;;;;;;;4.50;2.03;;;21.20;53.50;;;;;;10353989;28;20148;-58
2024/03/06 05:41:45;;;;;;;4.55;1.90;;;21.40;53.50;;;;;;10354885;28;20125;-60
2024/03/06 05:46:47;;;;;;;4.25;1.95;;;21.60;53.30;;;;;;10356038;28;20465;-58
2024/03/06 05:51:49;;;;;;;3.47;1.90;;;21.60;53.40;;;;;;10354064;28;20045;-61
2024/03/06 05:56:53;;;;;;;2.63;1.75;;;21.60;53.20;;;;;;10356776;28;20512;-60
2024/03/06 06:01:55;;;;;;;9.65;2.97;;;21.50;53.80;;;;;;10358607;28;20083;-60
2024/03/06 06:06:56;;;;;;;20.67;3.20;;;21.50;53.20;;;;;;10358582;28;20050;-62
2024/03/06 06:12:00;;;;;;;11.32;3.10;;;21.70;52.50;;;;;;10364372;28;20530;-61
2024/03/06 06:17:03;;;;;;;11.85;2.83;;;21.70;53.30;;;;;;10358940;28;20045;-61
2024/03/06 06:22:04;;;;;;;9.57;2.85;;;21.70;53.10;;;;;;10358747;28;20042;-61
2024/03/06 06:27:08;;;;;;;11.23;2.95;;;21.80;53.00;;;;;;10364425;28;20134;-60
2024/03/06 06:32:09;;;;;;;9.77;2.95;;;21.70;52.80;;;;;;10366568;28;20467;-56
2024/03/06 06:37:11;;;;;;;14.95;4.00;;;21.80;52.60;;;;;;10362763;28;20041;-59
2024/03/06 06:42:14;;;;;;;24.67;5.50;;;21.80;52.90;;;;;;10363973;28;20497;-60
2024/03/06 06:47:15;;;;;;;22.05;6.05;;;21.90;53.20;;;;;;10362877;28;20125;-59
2024/03/06 06:52:17;;;;;;;20.90;6.15;;;21.80;53.40;;;;;;10360301;28;20147;-58
2024/03/06 06:57:20;;;;;;;19.70;5.50;;;21.80;53.60;;;;;;10363187;28;20046;-58
2024/03/06 07:02:22;;;;;;;15.75;5.95;;;21.80;53.70;;;;;;10360416;28;20049;-60
2024/03/06 07:07:24;;;;;;;18.40;5.72;;;21.80;53.60;;;;;;10356453;28;20042;-60
2024/03/06 07:12:27;;;;;;;14.80;4.88;;;21.70;53.30;;;;;;10359405;28;20052;-60
2024/03/06 07:17:29;;;;;;;13.55;4.53;;;21.70;53.10;;;;;;10358970;28;20137;-57
2024/03/06 07:22:31;;;;;;;13.10;4.22;;;21.80;52.50;;;;;;10351524;28;20128;-59
2024/03/06 07:27:34;;;;;;;15.88;4.65;;;22.00;51.70;;;;;;10353880;28;20166;-58
2024/03/06 07:32:35;;;;;;;14.02;4.65;;;21.90;51.80;;;;;;10354067;28;20137;-59
2024/03/06 07:37:37;;;;;;;12.80;3.90;;;21.80;52.40;;;;;;10358805;28;20134;-60
2024/03/06 07:42:40;;;;;;;6.85;3.25;;;21.80;52.50;;;;;;10357580;28;20078;-60
2024/03/06 07:47:42;;;;;;;14.70;4.22;;;21.90;52.30;;;;;;10362743;28;20081;-59
2024/03/06 07:52:44;;;;;;;10.80;3.85;;;22.00;51.90;;;;;;10365027;28;20559;-61
2024/03/06 07:57:47;;;;;;;6.07;2.80;;;22.10;51.40;;;;;;10367785;28;20057;-59
2024/03/06 08:02:50;;;;;;;7.75;3.60;;;21.70;52.50;;;;;;10368054;28;20556;-59
2024/03/06 08:07:51;;;;;;;6.57;3.17;;;21.80;52.40;;;;;;10369672;28;20046;-59
2024/03/06 08:12:54;;;;;;;7.03;2.75;;;21.70;52.60;;;;;;10366443;28;20117;-58
2024/03/06 08:17:56;;;;;;;7.57;2.78;;;21.70;52.30;;;;;;10362295;28;20129;-59
2024/03/06 08:22:57;;;;;;;6.78;3.03;;;21.90;51.90;;;;;;10368701;28;20625;-57
2024/03/06 08:28:00;;;;;;;4.72;2.67;;;21.80;52.30;;;;;;10367004;28;20136;-60
2024/03/06 08:33:02;;;;;;;5.68;2.70;;;21.80;52.10;;;;;;10357240;28;20125;-57
2024/03/06 08:38:05;;;;;;;6.30;2.65;;;21.70;52.20;;;;;;10358951;28;20120;-60
2024/03/06 08:43:09;;;;;;;5.03;2.72;;;22.10;52.00;;;;;;10366669;28;20049;-60
2024/03/06 08:48:11;;;;;;;4.82;2.97;;;22.10;51.00;;;;;;10365114;28;20415;-58
2024/03/06 08:53:13;;;;;;;4.43;2.70;;;21.90;51.80;;;;;;10366504;28;20038;-58
2024/03/06 08:58:16;;;;;;;3.83;2.20;;;21.90;51.70;;;;;;10365577;28;20042;-58
2024/03/06 09:03:18;;;;;;;4.03;2.33;;;21.80;51.90;;;;;;10355811;28;20074;-53
2024/03/06 09:08:20;;;;;;;3.75;2.15;;;22.00;51.60;;;;;;10346876;28;20473;-57
2024/03/06 09:13:23;;;;;;;5.85;2.50;;;22.20;50.90;;;;;;10357174;28;20046;-60
2024/03/06 09:18:24;;;;;;;4.45;2.15;;;22.00;51.10;;;;;;10355932;28;20042;-56
2024/03/06 09:23:29;;;;;;;3.83;2.10;;;21.90;51.40;;;;;;10357776;28;20133;-56
2024/03/06 09:28:32;;;;;;;2.85;1.90;;;21.90;51.40;;;;;;10364449;28;20496;-52
2024/03/06 09:33:34;;;;;;;2.85;1.90;;;22.10;51.10;;;;;;10364793;28;20049;-55
2024/03/06 09:38:37;;;;;;;5.22;2.10;;;22.30;50.30;;;;;;10370773;28;20137;-59
2024/03/06 09:43:41;;;;;;;4.32;2.10;;;22.20;50.50;;;;;;10359089;28;20073;-59
2024/03/06 09:48:46;;;;;;;3.00;1.80;;;22.00;51.00;;;;;;10369911;28;20104;-61
2024/03/06 09:53:49;;;;;;;3.42;1.90;;;21.90;51.20;;;;;;10366700;28;20571;-59
2024/03/06 09:58:53;;;;;;;3.83;1.73;;;22.00;50.80;;;;;;10370607;28;20050;-59
2024/03/06 10:03:55;;;;;;;3.78;2.00;;;22.30;50.30;;;;;;10370496;28;20037;-59
2024/03/06 10:08:59;;;;;;;2.53;1.60;;;22.40;50.00;;;;;;10374596;28;20531;-55
2024/03/06 10:14:02;;;;;;;2.60;1.63;;;22.10;50.80;;;;;;10369106;28;20432;-59
2024/03/06 10:19:16;;;;;;;2.38;1.58;;;22.00;50.90;;;;;;10369113;28;20125;-60
2024/03/06 10:24:20;;;;;;;2.50;1.70;;;22.10;51.00;;;;;;10371737;28;20125;-55
2024/03/06 10:29:24;;;;;;;2.58;1.73;;;22.30;50.40;;;;;;10364550;28;20052;-54
2024/03/06 10:34:26;;;;;;;5.30;1.70;;;22.70;49.50;;;;;;10370551;28;20042;-57
2024/03/06 10:39:28;;;;;;;2.15;1.58;;;22.50;49.70;;;;;;10366426;28;20137;-60
2024/03/06 10:44:31;;;;;;;2.40;1.60;;;22.30;50.60;;;;;;10372261;28;20129;-59
2024/03/06 10:49:34;;;;;;;1.77;1.25;;;22.20;50.60;;;;;;10368874;28;20052;-56
2024/03/06 10:54:38;;;;;;;2.25;1.50;;;22.30;50.50;;;;;;10367914;28;20129;-59
2024/03/06 10:59:42;;;;;;;1.63;1.27;;;22.20;50.60;;;;;;10357929;28;20050;-60
2024/03/06 11:04:43;;;;;;;1.75;1.35;;;22.20;50.40;;;;;;10373475;28;20076;-59
2024/03/06 11:09:48;;;;;;;1.48;1.30;;;22.30;50.30;;;;;;10367957;28;20136;-58
2024/03/06 11:14:52;;;;;;;1.95;1.50;;;22.30;50.10;;;;;;10358157;28;20050;-55
2024/03/06 11:20:19;;;;;;;2.05;1.50;;;22.10;50.60;;;;;;10366193;28;20140;-60
2024/03/06 11:25:59;;;;;;;2.08;1.40;;;22.10;50.40;;;;;;10366137;28;20074;-59
2024/03/06 11:31:03;;;;;;;1.63;1.33;;;22.00;50.70;;;;;;10326905;28;20054;-57
2024/03/06 11:36:20;;;;;;;2.03;1.67;;;22.00;50.60;;;;;;10366393;28;20060;-60
2024/03/06 11:41:24;;;;;;;2.10;1.30;;;22.10;50.30;;;;;;10369259;28;20488;-59
2024/03/06 11:51:55;;;;;;;2.30;1.77;;;21.90;50.80;;;;;;10471776;28;20386;-57
2024/03/06 11:56:57;;;;;;;1.40;1.30;;;22.10;50.30;;;;;;10398944;28;20077;-58
2024/03/06 12:02:02;;;;;;;2.42;1.40;;;22.30;50.00;;;;;;10364280;28;20148;-56
2024/03/06 12:07:06;;;;;;;1.58;1.20;;;22.80;48.80;;;;;;10355468;28;20049;-56
2024/03/06 12:12:09;;;;;;;1.58;1.40;;;22.80;48.60;;;;;;10348312;28;20058;-58
2024/03/06 12:17:13;;;;;;;2.40;1.50;;;22.40;49.60;;;;;;10343695;28;20054;-58
2024/03/06 12:22:18;;;;;;;1.55;1.10;;;22.30;50.00;;;;;;10379974;28;20076;-56
2024/03/06 12:27:25;;;;;;;1.55;1.20;;;22.50;49.60;;;;;;10427866;28;20056;-57
2024/03/06 12:32:29;;;;;;;1.30;1.20;;;23.00;48.40;;;;;;10441032;28;20041;-56
2024/03/06 12:37:32;;;;;;;1.73;1.30;;;22.80;48.50;;;;;;10435032;28;20530;-59
2024/03/06 12:42:34;;;;;;;1.40;1.20;;;22.70;48.90;;;;;;10438310;28;20049;-58
2024/03/06 12:47:35;;;;;;;1.45;1.20;;;22.40;49.50;;;;;;10435546;28;20041;-58
2024/03/06 12:52:38;;;;;;;1.25;1.10;;;22.50;49.30;;;;;;10434921;28;20140;-62
2024/03/06 12:57:40;;;;;;;2.03;1.13;;;22.90;48.60;;;;;;10429997;28;20073;-55
2024/03/06 13:02:42;;;;;;;1.77;1.20;;;22.90;48.10;;;;;;10410573;28;20166;-58
2024/03/06 13:07:48;;;;;;;1.50;1.17;;;23.00;48.00;;;;;;10412458;28;20136;-61
2024/03/06 13:12:50;;;;;;;1.48;1.10;;;22.90;48.00;;;;;;10399704;28;20049;-60
2024/03/06 13:17:51;;;;;;;1.30;1.20;;;22.90;48.00;;;;;;10407147;28;20073;-59
2024/03/06 13:22:54;;;;;;;1.20;1.10;;;22.80;47.90;;;;;;10395281;28;20045;-61
2024/03/06 13:27:56;;;;;;;1.77;1.10;;;22.90;48.00;;;;;;10394022;28;20037;-60
2024/03/06 13:32:57;;;;;;;1.60;1.27;;;22.90;47.80;;;;;;10398592;28;20052;-61
2024/03/06 13:38:02;;;;;;;3.15;1.40;;;22.90;47.80;;;;;;10395882;28;20506;-60
2024/03/06 13:43:04;;;;;;;1.23;1.13;;;22.70;47.90;;;;;;10405582;28;20041;-61
2024/03/06 13:48:15;;;;;;;1.48;1.30;;;22.70;48.20;;;;;;10404387;28;20518;-59
2024/03/06 13:53:18;;;;;;;;;;;22.50;48.70;;;;;;10401758;28;20060;-61
2024/03/06 13:58:20;;;;;;;1.05;0.95;;;22.40;48.80;;;;;;10398718;28;19928;-60
2024/03/06 14:03:22;;;;;;;1.25;1.10;;;22.30;49.40;;;;;;10395056;28;20049;-59
2024/03/06 14:08:25;;;;;;;1.52;1.17;;;22.30;49.20;;;;;;10395574;28;20045;-61
2024/03/06 14:13:27;;;;;;;1.30;1.17;;;22.40;49.10;;;;;;10396541;28;20049;-61
2024/03/06 14:18:29;;;;;;;1.10;1.00;;;22.30;49.10;;;;;;10395304;28;20040;-60
2024/03/06 14:23:32;;;;;;;1.77;1.20;;;22.40;48.60;;;;;;10409370;28;20471;-59
2024/03/06 14:28:33;;;;;;;1.20;1.10;;;22.40;48.60;;;;;;10401938;28;20048;-58
2024/03/06 14:33:36;;;;;;;1.15;1.05;;;22.40;48.90;;;;;;10413396;28;20129;-60
2024/03/06 14:38:39;;;;;;;1.15;1.05;;;22.50;48.70;;;;;;10406339;28;20464;-59
2024/03/06 14:43:41;;;;;;;1.10;1.00;;;22.80;48.30;;;;;;10402361;28;20136;-61
2024/03/06 14:48:44;;;;;;;0.98;0.93;;;22.70;48.50;;;;;;10397148;28;20076;-60
2024/03/06 14:53:47;;;;;;;1.13;0.95;;;22.90;48.40;;;;;;10402052;28;20523;-59
2024/03/06 14:58:49;;;;;;;1.45;1.13;;;22.90;48.30;;;;;;10403901;28;20164;-59
2024/03/06 15:03:50;;;;;;;1.27;1.02;;;23.00;48.20;;;;;;10399254;28;20557;-61
2024/03/06 15:08:53;;;;;;;1.13;1.02;;;23.20;48.10;;;;;;10395851;28;20445;-61
2024/03/06 15:13:55;;;;;;;1.38;1.00;;;23.50;47.30;;;;;;10394330;28;20120;-61
2024/03/06 15:18:57;;;;;;;0.90;0.90;;;23.50;46.90;;;;;;10400856;28;20095;-60
2024/03/06 15:24:00;;;;;;;0.90;0.90;;;23.80;46.20;;;;;;10398062;28;20786;-60
2024/03/06 15:29:04;;;;;;;1.10;1.00;;;24.10;45.60;;;;;;10396251;28;20411;-58
2024/03/06 15:34:06;;;;;;;1.10;1.00;;;24.50;44.90;;;;;;10392245;28;20047;-60
2024/03/06 15:39:09;;;;;;;1.20;1.10;;;25.70;42.80;;;;;;10391913;28;20148;-58
2024/03/06 15:44:11;;;;;;;1.10;1.00;;;26.20;41.60;;;;;;10392762;28;20055;-58
2024/03/06 15:49:20;;;;;;;1.98;1.30;;;26.30;41.40;;;;;;10395025;28;20140;-59
2024/03/06 15:54:23;;;;;;;10.15;1.48;;;26.10;41.90;;;;;;10396478;28;20269;-59
2024/03/06 15:59:25;;;;;;;2.55;1.35;;;25.90;44.80;;;;;;10389969;28;20053;-59
2024/03/06 16:04:26;;;;;;;3.25;1.40;;;25.60;42.10;;;;;;10398142;28;20141;-59
2024/03/06 16:09:29;;;;;;;12.20;1.67;;;25.10;42.90;;;;;;10397988;28;20137;-59
2024/03/06 16:14:31;;;;;;;5.40;1.40;;;24.70;44.50;;;;;;10398580;28;20148;-61
2024/03/06 16:19:34;;;;;;;9.50;1.42;;;24.30;45.10;;;;;;10394993;28;20092;-61
2024/03/06 16:24:36;;;;;;;8.98;1.70;;;24.10;45.70;;;;;;10389766;28;20049;-57
2024/03/06 16:29:38;;;;;;;6.43;1.60;;;23.80;46.60;;;;;;10397663;28;20487;-61
2024/03/06 16:34:40;;;;;;;10.65;2.10;;;23.90;46.90;;;;;;10401896;28;20152;-62
2024/03/06 16:39:45;;;;;;;28.00;1.85;;;24.00;47.00;;;;;;10401938;28;20057;-61
2024/03/06 16:44:49;;;;;;;17.90;1.95;;;24.00;47.30;;;;;;10400334;28;20038;-60
2024/03/06 16:49:51;;;;;;;9.30;1.85;;;24.00;47.30;;;;;;10397549;28;20522;-61
2024/03/06 16:54:54;;;;;;;17.27;1.75;;;23.90;46.70;;;;;;10390467;28;20140;-58
2024/03/06 16:59:55;;;;;;;10.05;1.35;;;23.90;46.50;;;;;;10394846;28;20080;-61
2024/03/06 17:04:57;;;;;;;3.28;1.15;;;23.70;46.90;;;;;;10404842;28;20136;-61
2024/03/06 17:10:00;;;;;;;15.27;1.27;;;23.60;46.90;;;;;;10405446;28;20484;-61
2024/03/06 17:15:02;;;;;;;4.10;1.23;;;23.70;47.10;;;;;;10404968;28;20049;-61
2024/03/06 17:20:04;;;;;;;7.50;1.33;;;23.70;47.30;;;;;;10401814;28;20045;-60
2024/03/06 17:25:08;;;;;;;18.98;2.35;;;23.60;47.50;;;;;;10404671;28;20577;-60
2024/03/06 17:30:13;;;;;;;38.63;2.83;;;23.60;47.60;;;;;;10404122;28;20049;-60
2024/03/06 17:35:15;;;;;;;9.52;1.60;;;23.40;48.70;;;;;;10402993;28;20062;-60
2024/03/06 17:40:18;;;;;;;12.15;1.70;;;23.60;47.80;;;;;;10400996;28;20163;-61
2024/03/06 17:45:20;;;;;;;14.82;1.95;;;23.60;47.20;;;;;;10403802;28;20055;-61
2024/03/06 17:50:22;;;;;;;10.25;1.70;;;23.50;47.50;;;;;;10400937;28;20061;-61
2024/03/06 17:55:25;;;;;;;10.35;2.30;;;23.40;47.80;;;;;;10405007;28;20715;-61
2024/03/06 18:00:26;;;;;;;8.55;3.30;;;23.50;47.80;;;;;;10400638;28;20136;-61
2024/03/06 18:05:28;;;;;;;8.45;4.50;;;23.20;45.90;;;;;;10398830;28;20734;-62
2024/03/06 18:10:31;;;;;;;11.23;4.50;;;23.40;47.10;;;;;;10397099;28;20418;-62
2024/03/06 18:15:32;;;;;;;12.38;4.40;;;23.50;48.00;;;;;;10400469;28;20133;-62
2024/03/06 18:20:34;;;;;;;16.02;4.85;;;23.30;48.80;;;;;;10396858;28;20133;-62
2024/03/06 18:25:37;;;;;;;11.38;4.00;;;23.40;49.70;;;;;;10399188;28;20045;-61
2024/03/06 18:30:39;;;;;;;8.52;4.28;;;23.60;49.60;;;;;;10398942;28;20048;-61
2024/03/06 18:35:41;;;;;;;8.73;4.32;;;23.50;49.60;;;;;;10401965;28;20474;-62
2024/03/06 18:40:44;;;;;;;8.77;4.15;;;23.50;49.30;;;;;;10399911;28;20053;-60
2024/03/06 18:45:46;;;;;;;11.02;4.75;;;23.50;48.90;;;;;;10402484;28;20128;-60
2024/03/06 18:50:47;;;;;;;11.70;3.90;;;23.50;48.80;;;;;;10397369;28;20042;-60
2024/03/06 18:55:50;;;;;;;7.00;3.97;;;23.50;48.60;;;;;;10396586;28;20049;-61
2024/03/06 19:00:52;;;;;;;5.90;3.80;;;23.60;48.30;;;;;;10395789;28;22356;-61
2024/03/06 19:05:54;;;;;;;5.95;3.53;;;23.60;48.30;;;;;;10394398;28;20156;-61
2024/03/06 19:10:57;;;;;;;10.48;3.60;;;23.70;48.70;;;;;;10395032;28;20054;-62
2024/03/06 19:16:00;;;;;;;10.50;3.88;;;23.70;48.00;;;;;;10396313;28;20100;-60
2024/03/06 19:21:01;;;;;;;6.05;3.10;;;23.80;47.80;;;;;;10398906;28;20397;-60
2024/03/06 19:26:04;;;;;;;8.30;3.20;;;23.80;47.50;;;;;;10398330;28;20132;-59
2024/03/06 19:31:06;;;;;;;8.50;3.55;;;23.80;48.20;;;;;;10391565;28;20482;-61
2024/03/06 19:36:08;;;;;;;16.33;3.70;;;23.80;48.40;;;;;;10395643;28;20153;-59
2024/03/06 19:41:12;;;;;;;12.82;3.22;;;23.80;48.40;;;;;;10400393;28;20080;-60
2024/03/06 19:46:13;;;;;;;8.90;3.05;;;23.80;48.40;;;;;;10397248;28;20076;-62
2024/03/06 19:51:15;;;;;;;7.30;2.85;;;23.80;47.90;;;;;;10392170;28;20053;-61
2024/03/06 19:56:19;;;;;;;5.40;2.78;;;23.60;47.70;;;;;;10393351;28;20574;-60
2024/03/06 20:01:21;;;;;;;6.45;2.72;;;23.60;47.70;;;;;;10400403;28;20057;-62
2024/03/06 20:06:23;;;;;;;13.95;2.70;;;23.50;47.60;;;;;;10392977;28;20624;-59
2024/03/06 20:11:27;;;;;;;6.40;2.60;;;23.40;47.70;;;;;;10396917;28;20052;-60
2024/03/06 20:16:29;;;;;;;4.78;2.55;;;23.30;48.00;;;;;;10407693;28;20128;-58
2024/03/06 20:21:31;;;;;;;7.28;2.83;;;23.20;48.00;;;;;;10401651;28;20479;-60
2024/03/06 20:26:34;;;;;;;5.28;2.40;;;23.10;47.90;;;;;;10401743;28;20129;-60
2024/03/06 20:31:36;;;;;;;4.72;2.22;;;23.10;48.10;;;;;;10405561;28;20142;-59
2024/03/06 20:36:38;;;;;;;4.53;2.42;;;23.00;48.20;;;;;;10400355;28;20125;-60
2024/03/06 20:41:43;;;;;;;5.15;2.50;;;22.90;48.10;;;;;;10402743;28;20045;-60
2024/03/06 20:46:44;;;;;;;3.45;2.50;;;22.90;48.20;;;;;;10394921;28;20077;-58
2024/03/06 20:51:46;;;;;;;5.35;2.75;;;22.70;48.50;;;;;;10400406;28;20136;-57
2024/03/06 20:56:49;;;;;;;6.25;2.80;;;22.80;48.40;;;;;;10405864;28;20132;-59
2024/03/06 21:01:52;;;;;;;4.65;2.33;;;22.70;48.50;;;;;;10398320;28;20061;-57
2024/03/06 21:06:54;;;;;;;5.50;2.58;;;22.50;48.80;;;;;;10403784;28;20141;-60
2024/03/06 21:11:57;;;;;;;3.60;2.47;;;22.40;49.00;;;;;;10394368;28;20045;-55
2024/03/06 21:17:00;;;;;;;6.32;2.40;;;22.40;48.80;;;;;;10400598;28;20049;-57
2024/03/06 21:22:03;;;;;;;3.83;2.20;;;22.50;48.50;;;;;;10391965;28;20079;-58
2024/03/06 21:27:06;;;;;;;5.30;2.40;;;22.20;48.90;;;;;;10396068;28;20056;-57
2024/03/06 21:32:08;;;;;;;5.55;2.58;;;22.30;48.90;;;;;;10394334;28;20057;-58
2024/03/06 21:37:09;;;;;;;3.22;2.10;;;22.50;48.00;;;;;;10399102;28;20053;-56
2024/03/06 21:42:13;;;;;;;4.43;2.35;;;22.60;47.80;;;;;;10398043;28;20045;-59
2024/03/06 21:47:15;;;;;;;2.97;2.03;;;22.50;47.80;;;;;;10394607;28;20568;-58
2024/03/06 21:52:16;;;;;;;2.38;1.92;;;22.40;47.90;;;;;;10398755;28;20132;-59
2024/03/06 21:57:19;;;;;;;3.90;2.05;;;22.30;48.50;;;;;;10399994;28;20053;-58
2024/03/06 22:02:21;;;;;;;5.32;2.15;;;22.20;48.80;;;;;;10398557;28;20474;-55
2024/03/06 22:07:23;;;;;;;4.28;2.03;;;22.30;48.10;;;;;;10400196;28;20140;-60
2024/03/06 22:12:26;;;;;;;3.45;2.50;;;22.30;48.10;;;;;;10402745;28;20045;-59
2024/03/06 22:17:29;;;;;;;3.75;2.10;;;22.50;47.40;;;;;;10403598;28;20149;-60
2024/03/06 22:22:30;;;;;;;2.78;2.13;;;22.40;47.70;;;;;;10399483;28;20119;-60
2024/03/06 22:27:33;;;;;;;3.83;2.17;;;22.40;47.20;;;;;;10393413;28;20530;-59
2024/03/06 22:32:35;;;;;;;2.28;2.08;;;22.50;47.20;;;;;;10394447;28;20048;-58
2024/03/06 22:37:37;;;;;;;2.20;2.00;;;22.40;47.40;;;;;;10389953;28;20132;-60
2024/03/06 22:42:40;;;;;;;2.58;2.20;;;22.30;47.30;;;;;;10395699;28;20132;-59
2024/03/06 22:47:42;;;;;;;3.00;1.95;;;22.20;47.60;;;;;;10399290;28;20042;-58
2024/03/06 22:52:44;;;;;;;3.63;2.17;;;22.20;47.60;;;;;;10401007;28;20136;-60
2024/03/06 22:57:47;;;;;;;1.80;1.70;;;22.10;47.90;;;;;;10399407;28;20076;-59
2024/03/06 23:02:49;;;;;;;2.30;1.90;;;22.10;47.80;;;;;;10397902;28;20575;-60
2024/03/06 23:07:50;;;;;;;3.10;2.05;;;22.00;47.90;;;;;;10393658;28;20045;-59
2024/03/06 23:12:53;;;;;;;2.78;2.10;;;22.00;49.40;;;;;;10395284;28;20156;-60
2024/03/06 23:17:55;;;;;;;2.58;1.98;;;21.80;50.00;;;;;;10400459;28;21833;-59
2024/03/06 23:22:56;;;;;;;3.00;2.05;;;21.90;49.40;;;;;;10398421;28;20070;-55
2024/03/06 23:28:01;;;;;;;3.03;2.17;;;21.90;49.20;;;;;;10401660;28;20115;-59
2024/03/06 23:33:02;;;;;;;2.65;1.92;;;21.90;49.40;;;;;;10396869;28;20046;-59
2024/03/06 23:38:04;;;;;;;2.50;2.13;;;21.90;49.30;;;;;;10397223;28;20137;-58
2024/03/06 23:43:07;;;;;;;2.70;2.00;;;21.80;49.20;;;;;;10396500;28;20127;-58
2024/03/06 23:48:10;;;;;;;3.53;1.80;;;21.90;50.20;;;;;;10394286;28;20136;-57
2024/03/06 23:53:12;;;;;;;2.42;1.90;;;21.90;51.10;;;;;;10397304;28;20046;-57
2024/03/06 23:58:16;;;;;;;2.00;1.80;;;21.90;50.90;;;;;;10393401;28;20041;-59
